createdAt,value
2022-09-23T00:01:11.346Z,89425.19
2022-09-23T00:03:41.950Z,89422.38
2022-09-23T00:06:21.755Z,89432.59
2022-09-23T00:08:49.273Z,89421.25
2022-09-23T00:11:18.559Z,89429.84
2022-09-23T00:13:47.116Z,89426.94
2022-09-23T00:16:27.600Z,89426.31
2022-09-23T00:18:54.552Z,89425.03
2022-09-23T00:21:22.468Z,89420.78
2022-09-23T00:23:49.383Z,89410.97
2022-09-23T00:26:22.233Z,89431.44
2022-09-23T00:28:50.038Z,89416.88
2022-09-23T00:31:25.755Z,89418.25
2022-09-23T00:34:01.971Z,89419.78
2022-09-23T00:36:39.034Z,89415.69
2022-09-23T00:39:05.959Z,89413.09
2022-09-23T00:41:33.130Z,89418.16
2022-09-23T00:44:01.325Z,89418.00
2022-09-23T00:46:49.308Z,89413.44
2022-09-23T00:49:24.515Z,89415.75
2022-09-23T00:51:59.067Z,89418.09
2022-09-23T00:54:27.117Z,89421.72
2022-09-23T00:56:55.460Z,89429.06
2022-09-23T00:59:23.199Z,89426.75
2022-09-23T01:01:52.955Z,89424.88
2022-09-23T01:04:19.638Z,89430.72
2022-09-23T01:06:46.442Z,89423.56
2022-09-23T01:09:13.235Z,89424.81
2022-09-23T01:11:49.732Z,89424.06
2022-09-23T01:14:59.876Z,89428.16
2022-09-23T01:17:44.817Z,89422.16
2022-09-23T01:20:48.394Z,89431.19
2022-09-23T01:23:37.004Z,89429.22
2022-09-23T01:26:25.678Z,89421.56
2022-09-23T01:29:10.693Z,89435.25
2022-09-23T01:31:37.302Z,89433.66
2022-09-23T01:34:06.687Z,89429.19
2022-09-23T01:36:36.170Z,89431.88
2022-09-23T01:39:22.723Z,89426.97
2022-09-23T01:42:06.467Z,89421.13
2022-09-23T01:44:40.626Z,89427.69
2022-09-23T01:47:12.002Z,89427.97
2022-09-23T01:49:54.235Z,89429.81
2022-09-23T01:52:40.634Z,89426.72
2022-09-23T01:55:13.384Z,89440.66
2022-09-23T01:58:06.073Z,89438.94
2022-09-23T02:00:39.371Z,89440.25
2022-09-23T02:03:17.472Z,89439.25
2022-09-23T02:05:51.573Z,89441.06
2022-09-23T02:08:38.376Z,89447.00
2022-09-23T02:11:11.682Z,89449.31
2022-09-23T02:18:09.548Z,89454.47
2022-09-23T02:20:44.935Z,89457.41
2022-09-23T02:23:51.214Z,89468.06
2022-09-23T02:26:30.192Z,89472.50
2022-09-23T02:29:09.861Z,89472.06
2022-09-23T02:31:42.404Z,89465.66
2022-09-23T02:34:36.933Z,89467.53
2022-09-23T02:37:15.837Z,89465.00
2022-09-23T02:40:02.147Z,89475.56
2022-09-23T02:42:39.432Z,89470.06
2022-09-23T02:45:07.065Z,89477.94
2022-09-23T02:47:47.223Z,89475.88
2022-09-23T02:50:14.565Z,89476.94
2022-09-23T02:52:43.170Z,89485.47
2022-09-23T02:55:11.867Z,89482.25
2022-09-23T02:57:38.738Z,89471.34
2022-09-23T03:00:06.164Z,89475.63
2022-09-23T03:02:43.104Z,89471.63
2022-09-23T03:05:33.557Z,89472.31
2022-09-23T03:08:21.625Z,89481.06
2022-09-23T03:11:11.588Z,89482.66
2022-09-23T03:13:55.517Z,89475.75
2022-09-23T03:16:44.326Z,89486.13
2022-09-23T03:19:32.742Z,89491.16
2022-09-23T03:22:18.420Z,89500.22
2022-09-23T03:24:51.952Z,89508.47
2022-09-23T03:27:25.385Z,89505.28
2022-09-23T03:29:58.750Z,89510.13
2022-09-23T03:32:28.327Z,89506.16
2022-09-23T03:34:58.724Z,89511.91
2022-09-23T03:37:30.205Z,89513.41
2022-09-23T03:40:12.960Z,89519.63
2022-09-23T03:42:40.665Z,89515.38
2022-09-23T03:45:12.013Z,89509.72
2022-09-23T03:47:39.292Z,89505.69
2022-09-23T03:50:06.875Z,89517.25
2022-09-23T03:52:40.614Z,89517.56
2022-09-23T03:55:08.234Z,89521.88
2022-09-23T03:57:47.125Z,89526.47
2022-09-23T04:00:15.070Z,89522.16
2022-09-23T04:02:42.331Z,89510.00
2022-09-23T04:05:10.630Z,89521.59
2022-09-23T04:07:37.475Z,89523.47
2022-09-23T04:10:05.728Z,89532.13
2022-09-23T04:12:32.769Z,89527.66
2022-09-23T04:14:59.648Z,89524.66
2022-09-23T04:17:34.458Z,89521.22
2022-09-23T04:20:01.288Z,89519.81
2022-09-23T04:22:29.700Z,89526.69
2022-09-23T04:24:56.543Z,89527.44
2022-09-23T04:27:23.270Z,89539.53
2022-09-23T04:29:50.465Z,89537.28
2022-09-23T04:32:25.322Z,89532.72
2022-09-23T04:34:51.989Z,89543.16
2022-09-23T04:37:18.823Z,89530.28
2022-09-23T04:39:45.844Z,89542.34
2022-09-23T04:42:15.810Z,89538.06
2022-09-23T04:44:44.917Z,89540.34
2022-09-23T04:47:11.801Z,89532.34
2022-09-23T04:49:38.727Z,89537.72
2022-09-23T04:52:05.604Z,89533.31
2022-09-23T04:54:32.537Z,89536.91
2022-09-23T04:56:59.346Z,89549.72
2022-09-23T04:59:26.251Z,89543.81
2022-09-23T05:02:07.940Z,89550.34
2022-09-23T05:04:34.802Z,89547.47
2022-09-23T05:07:09.055Z,89548.41
2022-09-23T05:09:38.475Z,89550.41
2022-09-23T05:12:05.493Z,89549.50
2022-09-23T05:14:34.290Z,89559.03
2022-09-23T05:17:01.269Z,89563.19
2022-09-23T05:19:28.180Z,89565.69
2022-09-23T05:21:55.739Z,89562.28
2022-09-23T05:24:22.678Z,89566.66
2022-09-23T05:26:49.416Z,89564.22
2022-09-23T05:29:16.157Z,89567.28
2022-09-23T05:31:46.022Z,89573.50
2022-09-23T05:34:15.884Z,89563.38
2022-09-23T05:36:42.584Z,89559.81
2022-09-23T05:39:09.555Z,89564.91
2022-09-23T05:41:39.094Z,89567.03
2022-09-23T05:47:00.790Z,89570.06
2022-09-23T05:49:42.867Z,89574.28
2022-09-23T05:52:14.608Z,89567.44
2022-09-23T05:54:41.380Z,89571.84
2022-09-23T05:57:08.229Z,89560.63
2022-09-23T05:59:34.965Z,89568.38
2022-09-23T06:02:06.385Z,89568.94
2022-09-23T06:04:33.278Z,89567.09
2022-09-23T06:07:03.344Z,89571.94
2022-09-23T06:09:35.540Z,89567.94
2022-09-23T06:12:04.453Z,89569.28
2022-09-23T06:14:31.202Z,89571.63
2022-09-23T06:16:57.930Z,89565.59
2022-09-23T06:19:24.816Z,89569.28
2022-09-23T06:21:51.854Z,89570.22
2022-09-23T06:24:21.989Z,89568.81
2022-09-23T06:26:50.683Z,89567.56
2022-09-23T06:29:17.464Z,89572.94
2022-09-23T06:31:44.232Z,89574.69
2022-09-23T06:34:13.747Z,89576.38
2022-09-23T06:36:45.099Z,89571.78
2022-09-23T06:39:15.920Z,89574.44
2022-09-23T06:41:43.560Z,89580.03
2022-09-23T06:44:10.363Z,89587.03
2022-09-23T06:46:37.298Z,89588.31
2022-09-23T06:49:04.933Z,89584.41
2022-09-23T06:51:33.135Z,89575.41
2022-09-23T06:54:00.025Z,89571.25
2022-09-23T06:56:26.875Z,89575.09
2022-09-23T06:58:54.354Z,89575.38
2022-09-23T07:01:21.166Z,89569.09
2022-09-23T07:03:48.246Z,89576.16
2022-09-23T07:06:15.726Z,89576.63
2022-09-23T07:08:44.818Z,89580.47
2022-09-23T07:11:16.310Z,89573.22
2022-09-23T07:13:43.530Z,89570.06
2022-09-23T07:16:19.322Z,89569.78
2022-09-23T07:18:46.106Z,89568.34
2022-09-23T07:21:15.684Z,89566.66
2022-09-23T07:23:47.783Z,89573.00
2022-09-23T07:26:26.738Z,89559.84
2022-09-23T07:28:57.656Z,89550.56
2022-09-23T07:31:37.569Z,89557.22
2022-09-23T07:34:08.189Z,89559.69
2022-09-23T07:36:36.046Z,89562.88
2022-09-23T07:39:02.836Z,89555.66
2022-09-23T07:41:31.575Z,89554.59
2022-09-23T07:43:59.300Z,89552.44
2022-09-23T07:46:37.445Z,89545.81
2022-09-23T07:49:05.415Z,89552.53
2022-09-23T07:51:43.785Z,89550.88
2022-09-23T07:54:13.773Z,89558.13
2022-09-23T07:56:47.717Z,89557.16
2022-09-23T07:59:17.175Z,89558.56
2022-09-23T08:01:47.037Z,89554.28
2022-09-23T08:04:28.400Z,89555.91
2022-09-23T08:06:58.002Z,89554.97
2022-09-23T08:09:28.292Z,89555.00
2022-09-23T08:11:55.907Z,89552.53
2022-09-23T08:14:24.321Z,89552.19
2022-09-23T08:17:22.649Z,89546.53
2022-09-23T08:20:05.372Z,89538.75
2022-09-23T08:22:32.485Z,89544.63
2022-09-23T08:25:02.717Z,89535.34
2022-09-23T08:27:29.551Z,89544.78
2022-09-23T08:29:56.389Z,89537.50
2022-09-23T08:32:30.395Z,89547.63
2022-09-23T08:34:57.437Z,89545.22
2022-09-23T08:37:24.312Z,89545.16
2022-09-23T08:39:51.204Z,89540.19
2022-09-23T08:42:28.086Z,89529.03
2022-09-23T08:45:02.542Z,89530.53
2022-09-23T08:47:40.964Z,89534.25
2022-09-23T08:50:09.430Z,89536.28
2022-09-23T08:52:58.113Z,89525.81
2022-09-23T08:55:48.994Z,89518.53
2022-09-23T08:58:45.626Z,89522.00
2022-09-23T09:01:33.855Z,89527.75
2022-09-23T09:04:04.170Z,89532.34
2022-09-23T09:06:54.147Z,89531.03
2022-09-23T09:09:32.417Z,89526.59
2022-09-23T09:12:48.165Z,89533.69
2022-09-23T09:15:26.250Z,89537.84
2022-09-23T09:18:07.978Z,89519.34
2022-09-23T09:20:55.887Z,89509.56
2022-09-23T09:23:27.401Z,89513.69
2022-09-23T09:26:04.276Z,89505.03
2022-09-23T09:28:48.109Z,89518.75
2022-09-23T09:31:38.824Z,89503.28
2022-09-23T09:34:14.854Z,89496.44
2022-09-23T09:36:47.940Z,89496.50
2022-09-23T09:39:15.765Z,89491.78
2022-09-23T09:41:47.781Z,89497.38
2022-09-23T09:44:26.021Z,89498.78
2022-09-23T09:47:24.950Z,89494.97
2022-09-23T09:50:08.335Z,89489.22
2022-09-23T09:52:38.912Z,89491.72
2022-09-23T09:55:14.773Z,89487.34
2022-09-23T09:57:54.170Z,89473.75
2022-09-23T10:00:26.853Z,89460.63
2022-09-23T10:03:30.662Z,89456.94
2022-09-23T10:05:57.508Z,89455.88
2022-09-23T10:08:33.895Z,89455.00
2022-09-23T10:11:03.187Z,89456.78
2022-09-23T10:13:31.254Z,89449.94
2022-09-23T10:16:02.686Z,89443.16
2022-09-23T10:18:47.214Z,89437.63
2022-09-23T10:21:23.102Z,89439.84
2022-09-23T10:23:57.150Z,89429.97
2022-09-23T10:27:03.982Z,89429.78
2022-09-23T10:29:49.408Z,89439.84
2022-09-23T10:32:34.173Z,89441.81
2022-09-23T10:35:16.134Z,89434.53
2022-09-23T10:37:45.650Z,89447.16
2022-09-23T10:40:39.036Z,89447.09
2022-09-23T10:43:32.840Z,89447.22
2022-09-23T10:46:04.300Z,89437.41
2022-09-23T10:49:17.188Z,89418.06
2022-09-23T10:52:04.393Z,89403.63
2022-09-23T10:54:49.493Z,89409.59
2022-09-23T10:57:41.909Z,89400.00
2022-09-23T11:00:22.911Z,89403.75
2022-09-23T11:03:10.236Z,89402.38
2022-09-23T11:06:09.532Z,89395.69
2022-09-23T11:08:53.183Z,89409.34
2022-09-23T11:11:34.824Z,89418.78
2022-09-23T11:14:04.493Z,89409.53
2022-09-23T11:16:57.595Z,89414.03
2022-09-23T11:19:45.527Z,89416.47
2022-09-23T11:22:31.745Z,89403.38
2022-09-23T11:25:47.378Z,89409.03
2022-09-23T11:28:29.586Z,89417.94
2022-09-23T11:31:18.097Z,89422.22
2022-09-23T11:34:28.682Z,89422.34
2022-09-23T11:37:14.284Z,89418.97
2022-09-23T11:40:13.347Z,89412.16
2022-09-23T11:42:52.765Z,89429.75
2022-09-23T11:45:31.481Z,89423.25
2022-09-23T11:48:25.720Z,89421.66
2022-09-23T11:50:57.580Z,89392.59
2022-09-23T11:54:02.895Z,89391.59
2022-09-23T11:56:50.266Z,89401.53
2022-09-23T11:59:40.843Z,89391.84
2022-09-23T12:02:20.799Z,89402.22
2022-09-23T12:05:12.649Z,89395.47
2022-09-23T12:08:13.050Z,89388.44
2022-09-23T12:10:53.749Z,89381.78
2022-09-23T12:13:36.745Z,89375.09
2022-09-23T12:16:25.987Z,89371.03
2022-09-23T12:19:08.019Z,89376.00
2022-09-23T12:21:52.678Z,89372.56
2022-09-23T12:24:44.362Z,89370.06
2022-09-23T12:27:22.718Z,89360.34
2022-09-23T12:29:59.569Z,89359.72
2022-09-23T12:32:27.367Z,89355.97
2022-09-23T12:34:54.958Z,89363.25
2022-09-23T12:37:28.845Z,89350.72
2022-09-23T12:40:07.589Z,89347.31
2022-09-23T12:42:35.913Z,89347.34
2022-09-23T12:45:35.165Z,89333.81
2022-09-23T12:48:04.355Z,89322.66
2022-09-23T12:50:51.569Z,89321.84
2022-09-23T12:53:33.677Z,89322.38
2022-09-23T12:56:23.078Z,89329.16
2022-09-23T12:58:49.999Z,89336.41
2022-09-23T13:01:25.363Z,89332.13
2022-09-23T13:03:58.707Z,89337.00
2022-09-23T13:06:41.463Z,89332.03
2022-09-23T13:09:20.304Z,89326.16
2022-09-23T13:11:48.547Z,89322.25
2022-09-23T13:14:26.602Z,89327.81
2022-09-23T13:16:55.417Z,89328.44
2022-09-23T13:33:19.377Z,89320.66
2022-09-23T13:35:50.420Z,89309.84
2022-09-23T13:38:28.115Z,89310.03
2022-09-23T13:41:04.707Z,89304.06
2022-09-23T13:43:40.915Z,89304.41
2022-09-23T13:46:40.890Z,89309.38
2022-09-23T13:49:27.290Z,89307.38
2022-09-23T13:51:56.433Z,89307.94
2022-09-23T13:54:31.963Z,89303.28
2022-09-23T13:56:59.584Z,89316.63
2022-09-23T13:59:41.169Z,89303.09
2022-09-23T14:02:16.820Z,89300.28
2022-09-23T14:04:46.285Z,89301.03
2022-09-23T14:07:15.748Z,89299.25
2022-09-23T14:09:46.435Z,89308.16
2022-09-23T14:12:13.723Z,89306.72
2022-09-23T14:14:42.206Z,89308.38
2022-09-23T14:17:14.304Z,89305.25
2022-09-23T14:19:45.542Z,89306.09
2022-09-23T14:22:30.787Z,89309.81
2022-09-23T14:24:58.324Z,89317.88
2022-09-23T14:27:29.179Z,89319.78
2022-09-23T14:29:56.437Z,89322.69
2022-09-23T14:32:25.328Z,89311.13
2022-09-23T14:35:01.219Z,89325.44
2022-09-23T14:37:36.908Z,89323.06
2022-09-23T14:40:08.986Z,89324.59
2022-09-23T14:42:39.990Z,89325.84
2022-09-23T14:45:11.944Z,89322.50
2022-09-23T14:47:44.178Z,89317.66
2022-09-23T14:50:23.647Z,89313.84
2022-09-23T14:52:51.376Z,89314.72
2022-09-23T14:55:18.679Z,89317.75
2022-09-23T14:57:46.096Z,89315.22
2022-09-23T15:00:20.534Z,89327.00
2022-09-23T15:03:11.565Z,89330.63
2022-09-23T15:05:44.467Z,89330.22
2022-09-23T15:08:17.811Z,89336.66
2022-09-23T15:10:45.263Z,89344.50
2022-09-23T15:13:16.754Z,89335.31
2022-09-23T15:15:44.404Z,89338.00
2022-09-23T15:18:30.271Z,89337.59
2022-09-23T15:21:16.293Z,89345.66
2022-09-23T15:23:56.220Z,89340.69
2022-09-23T15:26:43.061Z,89328.75
2022-09-23T15:29:10.161Z,89322.78
2022-09-23T15:31:37.363Z,89323.75
2022-09-23T15:34:05.108Z,89326.41
2022-09-23T15:36:32.251Z,89340.91
2022-09-23T15:39:03.789Z,89329.88
2022-09-23T15:41:30.719Z,89323.25
2022-09-23T15:43:57.557Z,89329.66
2022-09-23T15:46:27.390Z,89337.59
2022-09-23T15:49:09.010Z,89341.72
2022-09-23T15:51:35.798Z,89329.91
2022-09-23T15:54:02.576Z,89337.03
2022-09-23T15:56:29.575Z,89343.75
2022-09-23T15:58:56.281Z,89339.97
2022-09-23T16:01:33.391Z,89343.34
2022-09-23T16:04:00.314Z,89333.59
2022-09-23T16:06:27.386Z,89344.47
2022-09-23T16:08:54.600Z,89344.25
2022-09-23T16:11:25.246Z,89345.63
2022-09-23T16:13:52.116Z,89344.06
2022-09-23T16:16:19.592Z,89346.53
2022-09-23T16:18:46.449Z,89350.13
2022-09-23T16:21:14.576Z,89347.25
2022-09-23T16:23:44.049Z,89354.47
2022-09-23T16:26:14.509Z,89358.28
2022-09-23T16:28:42.239Z,89357.31
2022-09-23T16:31:09.266Z,89356.19
2022-09-23T16:33:36.108Z,89356.50
2022-09-23T16:36:03.156Z,89366.31
2022-09-23T16:38:30.371Z,89362.47
2022-09-23T16:40:57.385Z,89373.94
2022-09-23T16:43:24.222Z,89372.44
2022-09-23T16:45:51.116Z,89374.47
2022-09-23T16:48:18.072Z,89372.00
2022-09-23T16:50:45.099Z,89381.72
2022-09-23T16:53:11.937Z,89383.91
2022-09-23T16:55:38.720Z,89380.41
2022-09-23T16:58:05.514Z,89382.59
2022-09-23T17:00:32.592Z,89387.13
2022-09-23T17:03:00.116Z,89389.78
2022-09-23T17:05:27.872Z,89385.63
2022-09-23T17:07:54.918Z,89388.78
2022-09-23T17:10:21.727Z,89387.72
2022-09-23T17:12:48.577Z,89400.69
2022-09-23T17:15:15.630Z,89407.84
2022-09-23T17:17:44.712Z,89396.03
2022-09-23T17:20:11.586Z,89403.41
2022-09-23T17:22:38.731Z,89406.34
2022-09-23T17:25:08.622Z,89412.13
2022-09-23T17:27:36.135Z,89418.13
2022-09-23T17:30:04.472Z,89421.47
2022-09-23T17:32:31.840Z,89416.75
2022-09-23T17:34:58.772Z,89421.94
2022-09-23T17:37:25.586Z,89425.97
2022-09-23T17:39:52.353Z,89422.81
2022-09-23T17:42:19.161Z,89429.16
2022-09-23T17:44:46.182Z,89424.13
2022-09-23T17:47:13.088Z,89424.13
2022-09-23T17:49:40.182Z,89430.69
2022-09-23T17:52:07.609Z,89433.66
2022-09-23T17:54:34.851Z,89437.81
2022-09-23T17:57:02.015Z,89449.72
2022-09-23T17:59:30.451Z,89432.22
2022-09-23T18:08:17.538Z,89442.88
2022-09-23T18:10:44.594Z,89438.75
2022-09-23T18:13:14.600Z,89443.09
2022-09-23T18:15:41.446Z,89432.44
2022-09-23T18:18:08.257Z,89444.34
2022-09-23T18:20:38.653Z,89442.88
2022-09-23T18:23:05.673Z,89445.59
2022-09-23T18:25:39.881Z,89449.97
2022-09-23T18:28:07.239Z,89455.31
2022-09-23T18:30:34.122Z,89448.50
2022-09-23T18:33:01.124Z,89458.22
2022-09-23T18:35:27.989Z,89458.22
2022-09-23T18:37:54.809Z,89460.41
2022-09-23T18:40:21.747Z,89455.56
2022-09-23T18:42:48.620Z,89453.09
2022-09-23T18:45:15.445Z,89453.84
2022-09-23T18:47:42.285Z,89447.03
2022-09-23T18:50:13.462Z,89449.22
2022-09-23T18:52:40.388Z,89441.47
2022-09-23T18:55:07.455Z,89433.66
2022-09-23T18:57:34.274Z,89429.06
2022-09-23T19:00:01.042Z,89426.09
2022-09-23T19:02:27.765Z,89421.75
2022-09-23T19:04:54.584Z,89431.66
2022-09-23T19:07:21.451Z,89427.81
2022-09-23T19:09:48.183Z,89431.88
2022-09-23T19:12:15.321Z,89432.09
2022-09-23T19:14:42.121Z,89431.13
2022-09-23T19:17:08.822Z,89438.41
2022-09-23T19:19:35.723Z,89444.75
2022-09-23T19:22:02.766Z,89449.16
2022-09-23T19:24:29.494Z,89454.50
2022-09-23T19:26:56.343Z,89449.38
2022-09-23T19:29:23.133Z,89463.72
2022-09-23T19:31:50.502Z,89445.25
2022-09-23T19:34:20.195Z,89449.91
2022-09-23T19:36:47.644Z,89443.81
2022-09-23T19:39:22.470Z,89453.56
2022-09-23T19:41:50.798Z,89457.91
2022-09-23T19:44:17.718Z,89464.94
2022-09-23T19:46:46.237Z,89452.78
2022-09-23T19:49:13.626Z,89456.66
2022-09-23T19:51:40.703Z,89462.97
2022-09-23T19:54:08.810Z,89460.56
2022-09-23T19:56:36.740Z,89468.06
2022-09-23T19:59:03.600Z,89475.13
2022-09-23T20:01:31.191Z,89464.91
2022-09-23T20:03:58.310Z,89456.88
2022-09-23T20:06:25.448Z,89466.09
2022-09-23T20:08:52.275Z,89467.03
2022-09-23T20:11:28.163Z,89469.25
2022-09-23T20:14:00.719Z,89463.44
2022-09-23T20:16:30.440Z,89469.28
2022-09-23T20:18:57.422Z,89465.63
2022-09-23T20:21:24.321Z,89461.69
2022-09-23T20:23:51.124Z,89464.56
2022-09-23T20:26:17.879Z,89470.31
2022-09-23T20:28:44.879Z,89458.44
2022-09-23T20:31:12.491Z,89467.84
2022-09-23T20:33:40.087Z,89474.66
2022-09-23T20:36:07.127Z,89463.97
2022-09-23T20:38:34.222Z,89470.72
2022-09-23T20:41:01.111Z,89460.06
2022-09-23T20:43:28.058Z,89460.34
2022-09-23T20:45:55.597Z,89454.28
2022-09-23T20:48:24.045Z,89443.84
2022-09-23T20:50:50.948Z,89464.94
2022-09-23T20:53:18.957Z,89458.13
2022-09-23T20:55:53.208Z,89458.59
2022-09-23T20:58:24.663Z,89464.16
2022-09-23T21:00:51.614Z,89460.25
2022-09-23T21:03:18.537Z,89465.16
2022-09-23T21:05:45.307Z,89474.84
2022-09-23T21:08:12.003Z,89476.31
2022-09-23T21:10:38.815Z,89471.50
2022-09-23T21:13:05.581Z,89468.06
2022-09-23T21:15:34.947Z,89464.97
2022-09-23T21:18:01.919Z,89468.09
2022-09-23T21:20:28.643Z,89472.69
2022-09-23T21:22:55.437Z,89486.28
2022-09-23T21:25:30.241Z,89479.97
2022-09-23T21:27:57.503Z,89465.66
2022-09-23T21:30:24.430Z,89460.09
2022-09-23T21:32:51.177Z,89466.41
2022-09-23T21:35:17.908Z,89466.44
2022-09-23T21:37:45.490Z,89487.53
2022-09-23T21:40:12.399Z,89487.03
2022-09-23T21:42:39.133Z,89489.00
2022-09-23T21:45:06.411Z,89487.50
2022-09-23T21:47:33.122Z,89474.84
2022-09-23T21:49:59.858Z,89472.66
2022-09-23T21:52:26.749Z,89482.09
2022-09-23T21:54:53.526Z,89479.16
2022-09-23T21:57:20.230Z,89484.00
2022-09-23T21:59:47.097Z,89493.41
2022-09-23T22:02:13.865Z,89477.38
2022-09-23T22:04:40.714Z,89476.44
2022-09-23T22:07:07.648Z,89468.69
2022-09-23T22:09:34.383Z,89463.31
2022-09-23T22:12:01.339Z,89464.06
2022-09-23T22:14:28.595Z,89468.38
2022-09-23T22:16:58.375Z,89476.63
2022-09-23T22:19:30.172Z,89472.31
2022-09-23T22:21:56.893Z,89479.66
2022-09-23T22:24:23.733Z,89480.84
2022-09-23T22:26:50.890Z,89478.91
2022-09-23T22:29:17.723Z,89484.97
2022-09-23T22:31:44.906Z,89487.91
2022-09-23T22:34:37.727Z,89499.56
2022-09-23T22:37:01.493Z,89489.34
2022-09-23T22:39:29.944Z,89484.50
2022-09-23T22:41:57.035Z,89495.16
2022-09-23T22:44:24.428Z,89491.03
2022-09-23T22:46:51.816Z,89490.06
2022-09-23T22:49:18.563Z,89486.88
2022-09-23T22:51:45.658Z,89487.28
2022-09-23T22:54:12.625Z,89481.25
2022-09-23T22:56:39.492Z,89477.06
2022-09-23T22:59:08.289Z,89474.59
2022-09-23T23:01:35.992Z,89481.84
2022-09-23T23:04:03.013Z,89476.78
2022-09-23T23:06:32.814Z,89473.66
2022-09-23T23:08:59.590Z,89477.06
2022-09-23T23:11:26.300Z,89468.63
2022-09-23T23:13:53.108Z,89477.53
2022-09-23T23:16:20.544Z,89477.44
2022-09-23T23:18:47.405Z,89482.00
2022-09-23T23:21:16.846Z,89489.06
2022-09-23T23:23:46.464Z,89490.22
2022-09-23T23:26:16.268Z,89498.44
2022-09-23T23:28:44.191Z,89494.59
2022-09-23T23:31:14.082Z,89498.94
2022-09-23T23:33:41.041Z,89499.22
2022-09-23T23:36:09.290Z,89501.34
2022-09-23T23:38:44.470Z,89500.13
2022-09-23T23:41:14.373Z,89493.59
2022-09-23T23:43:42.911Z,89488.53
2022-09-23T23:46:10.484Z,89491.66
2022-09-23T23:48:38.340Z,89484.50
2022-09-23T23:51:07.372Z,89486.47
2022-09-23T23:53:39.289Z,89487.84
2022-09-23T23:56:14.822Z,89494.63
2022-09-23T23:58:42.058Z,89486.13
